Impacts TAF Board INFO
FOR SITUATIONAL AWARENESS. NOT TO BE USED FOR FLIGHT PLANNING PURPOSES.
IDs:

KSLC - Salt Lake City Intl, UT, US

Issued at 1503 UTC 20 May 2018
Updated at 1529 UTC 20 May 2018
Potential Impact None Slight Moderate High
Time1454Z 20/16Z 20/17Z 20/18Z 20/19Z 20/20Z 20/21Z 20/22Z 20/23Z 21/00Z 21/01Z 21/02Z 21/03Z 21/04Z>>
Type OBS PRVL PRVL PRVL PRVL PRVL PRVL PRVL PRVL PRVL PRVL PRVL PRVL PRVL
VIS 10 >6 >6 >6 >6 >6 >6 >6 >6 >6 >6 >6 >6 >6
CIG -- -- -- -- -- 120 120 120 120 120 120 120 150 150
Cover FEW SCT SCT SCT SCT BKN BKN BKN BKN BKN BKN BKN BKN BKN
FltCat VFR VFR VFR VFR VFR VFR VFR VFR VFR VFR VFR VFR VFR VFR
WX -- -- -- -- -- VCSH VCSH VCSH VCSH VCSH VCSH VCSH -- --
WDir 150 170 170 170 170 340 340 340 340 340 340 340 160 160
WSpd 8 7 7 7 7 7 7 7 7 7 7 7 6 6
WGst -- -- -- -- -- -- -- -- -- -- -- -- -- --

Raw TAF
KSLC 201503Z 2015/2118 17007KT P6SM SCT080 SCT150
  FM202000 34007KT P6SM VCSH SCT060 BKN120
  FM210300 16006KT P6SM SCT080 BKN150


Raw METAR
KSLC 201454Z 15008KT 10SM FEW160 FEW250 20/06 A2996 RMK AO2 SLP100 T02000056 50005
KSLC 201354Z 15008KT 10SM FEW150 FEW250 18/06 A2996 RMK AO2 SLP101 T01780061
KSLC 201254Z 16007KT 10SM FEW150 SCT250 14/06 A2996 RMK AO2 SLP100 T01440061

METAR Board
Radar Display
Forecast Discussion

FOR SITUATIONAL AWARENESS. NOT TO BE USED FOR FLIGHT PLANNING PURPOSES.